PMF weather

Parma Airport
Parma, Emilia-Romagna, Italy

Public forecast

Using degrees Celsius for public forecast. Weather courtesy of forecast.io.

METAR (pilot weather report)

Retrieved 2019/07/22 08:50 UTC (48 minutes ago):

LIMP 220850Z VRB02KT 6000 NSC 28/22 Q1022

TAF (pilot weather forecast)

Retrieved 2019/07/22 06:21 UTC (3 hours ago):

TAF LIMP 220500Z 2206/2306 VRB05KT CAVOK